Time;durP1;ratioP1;P1;durP2;ratioP2;P2;SDS_P1;SDS_P2;PMS_P1;PMS_P2;Temp;Humidity;BMP_temperature;BMP_pressure;BME280_temperature;BME280_humidity;BME280_pressure;Samples;Min_cycle;Max_cycle;Signal;HPM_P1;HPM_P2
2022/10/01 00:00:14;;;;;;;5.97;5.37;;;;;;;;;;5025532;28;20174;-72
2022/10/01 00:02:40;;;;;;;7.80;5.80;;;;;;;;;;5021522;28;20198;-73
2022/10/01 00:05:05;;;;;;;9.10;5.80;;;;;;;;;;5027553;28;20173;-76
2022/10/01 00:07:36;;;;;;;6.17;5.57;;;;;;;;;;5024091;28;20170;-75
2022/10/01 00:10:01;;;;;;;7.83;6.00;;;;;;;;;;5028887;28;20246;-73
2022/10/01 00:12:26;;;;;;;8.00;6.03;;;;;;;;;;5025158;28;20285;-73
2022/10/01 00:14:52;;;;;;;7.37;6.00;;;;;;;;;;5029861;28;20182;-76
2022/10/01 00:17:17;;;;;;;6.13;5.53;;;;;;;;;;5025271;28;20205;-73
2022/10/01 00:19:42;;;;;;;6.60;5.80;;;;;;;;;;5027524;28;20206;-73
2022/10/01 00:22:07;;;;;;;6.03;5.50;;;;;;;;;;5029727;28;20699;-73
2022/10/01 00:24:32;;;;;;;8.10;6.17;;;;;;;;;;5029589;28;20248;-73
2022/10/01 00:26:59;;;;;;;5.50;4.87;;;;;;;;;;5030159;28;20221;-73
2022/10/01 00:29:24;;;;;;;5.90;5.20;;;;;;;;;;5017955;28;20258;-73
2022/10/01 00:31:49;;;;;;;6.73;5.33;;;;;;;;;;5015058;28;20289;-75
2022/10/01 00:34:14;;;;;;;5.63;4.70;;;;;;;;;;5027070;28;20183;-73
2022/10/01 00:36:41;;;;;;;6.87;5.43;;;;;;;;;;5014993;28;20233;-73
2022/10/01 00:39:06;;;;;;;5.87;5.10;;;;;;;;;;5024817;28;20190;-73
2022/10/01 00:41:32;;;;;;;6.43;5.63;;;;;;;;;;5032367;28;20186;-72
2022/10/01 00:43:59;;;;;;;5.27;4.77;;;;;;;;;;5020759;28;20204;-74
2022/10/01 00:46:27;;;;;;;6.73;5.20;;;;;;;;;;5030166;28;20686;-75
2022/10/01 00:48:57;;;;;;;6.30;4.93;;;;;;;;;;5027165;28;20258;-72
2022/10/01 00:51:22;;;;;;;5.93;4.97;;;;;;;;;;5022943;28;20697;-72
2022/10/01 00:53:47;;;;;;;6.50;5.03;;;;;;;;;;5020128;28;20198;-75
2022/10/01 00:56:13;;;;;;;8.00;5.03;;;;;;;;;;5027073;28;20694;-75
2022/10/01 00:58:38;;;;;;;7.57;4.97;;;;;;;;;;5022450;28;20252;-74
2022/10/01 01:01:03;;;;;;;6.27;4.87;;;;;;;;;;5026693;28;20181;-73
2022/10/01 01:03:29;;;;;;;5.63;5.10;;;;;;;;;;5027132;28;20202;-74
2022/10/01 01:05:54;;;;;;;6.77;5.30;;;;;;;;;;5014179;28;20178;-76
2022/10/01 01:08:19;;;;;;;8.73;5.50;;;;;;;;;;5024470;28;20198;-76
2022/10/01 01:11:00;;;;;;;6.57;5.07;;;;;;;;;;5024519;28;20274;-75
2022/10/01 01:13:25;;;;;;;5.10;4.50;;;;;;;;;;5026413;28;20202;-72
2022/10/01 01:15:56;;;;;;;5.10;4.27;;;;;;;;;;5023780;28;20297;-75
2022/10/01 01:18:41;;;;;;;5.33;4.67;;;;;;;;;;5026503;28;20616;-75
2022/10/01 01:21:10;;;;;;;4.63;4.20;;;;;;;;;;5022653;28;20206;-72
2022/10/01 01:24:01;;;;;;;5.13;4.20;;;;;;;;;;5027278;28;20213;-75
2022/10/01 01:26:28;;;;;;;5.60;4.80;;;;;;;;;;5007815;28;20627;-75
2022/10/01 01:28:56;;;;;;;7.77;4.73;;;;;;;;;;5022768;28;20178;-73
2022/10/01 01:31:23;;;;;;;6.53;4.60;;;;;;;;;;5024467;28;20205;-72
2022/10/01 01:33:50;;;;;;;6.80;4.10;;;;;;;;;;5024185;28;20567;-74
2022/10/01 01:36:17;;;;;;;5.40;3.97;;;;;;;;;;5021248;28;20707;-75
2022/10/01 01:38:45;;;;;;;4.87;4.37;;;;;;;;;;5025947;28;20175;-74
2022/10/01 01:41:10;;;;;;;5.60;4.07;;;;;;;;;;5026828;28;20577;-75
2022/10/01 01:43:37;;;;;;;5.40;4.57;;;;;;;;;;5031747;28;20202;-73
2022/10/01 01:46:04;;;;;;;5.80;4.27;;;;;;;;;;5020369;28;20183;-74
2022/10/01 01:48:30;;;;;;;4.67;4.20;;;;;;;;;;5028976;28;20220;-73
2022/10/01 01:50:59;;;;;;;6.57;4.93;;;;;;;;;;5014732;28;20206;-71
2022/10/01 01:53:25;;;;;;;5.60;4.30;;;;;;;;;;5018136;28;20199;-74
2022/10/01 01:55:51;;;;;;;4.83;4.33;;;;;;;;;;5021274;28;20324;-74
2022/10/01 01:58:17;;;;;;;6.00;3.97;;;;;;;;;;5026084;28;20198;-74
2022/10/01 02:00:42;;;;;;;4.37;3.97;;;;;;;;;;5023554;28;20181;-74
2022/10/01 02:03:08;;;;;;;4.70;3.83;;;;;;;;;;5002145;28;20581;-71
2022/10/01 02:05:38;;;;;;;3.90;3.43;;;;;;;;;;5009197;28;20174;-74
2022/10/01 02:08:11;;;;;;;4.70;3.20;;;;;;;;;;5023357;28;20185;-74
2022/10/01 02:10:52;;;;;;;2.90;2.70;;;;;;;;;;5011676;28;20197;-72
2022/10/01 02:13:17;;;;;;;3.80;3.00;;;;;;;;;;5025306;28;20701;-74
2022/10/01 02:15:58;;;;;;;3.47;3.17;;;;;;;;;;5024450;28;20202;-73
2022/10/01 02:18:35;;;;;;;3.17;2.87;;;;;;;;;;5023683;28;20174;-73
2022/10/01 02:21:36;;;;;;;3.47;2.93;;;;;;;;;;5025211;28;20170;-73
2022/10/01 02:24:08;;;;;;;3.50;3.20;;;;;;;;;;4964805;28;20310;-73
2022/10/01 02:26:34;;;;;;;3.63;3.33;;;;;;;;;;5018923;28;20201;-73
2022/10/01 02:29:05;;;;;;;4.57;3.77;;;;;;;;;;5018484;28;20262;-73
2022/10/01 02:31:31;;;;;;;5.40;3.07;;;;;;;;;;5027462;28;20686;-73
2022/10/01 02:33:58;;;;;;;3.07;2.70;;;;;;;;;;5021335;28;20202;-72
2022/10/01 02:36:24;;;;;;;2.83;2.50;;;;;;;;;;5021512;28;20243;-72
2022/10/01 02:38:51;;;;;;;3.47;3.10;;;;;;;;;;5028562;28;20189;-71
2022/10/01 02:41:19;;;;;;;2.87;2.67;;;;;;;;;;5030958;28;20188;-73
2022/10/01 02:43:55;;;;;;;3.10;2.70;;;;;;;;;;5026272;28;20610;-72
2022/10/01 02:46:26;;;;;;;2.77;2.57;;;;;;;;;;5026240;28;20273;-73
2022/10/01 02:48:52;;;;;;;4.00;3.07;;;;;;;;;;5024165;28;20195;-72
2022/10/01 02:51:24;;;;;;;3.30;3.00;;;;;;;;;;5024431;28;20260;-73
2022/10/01 02:53:51;;;;;;;2.83;2.63;;;;;;;;;;5005791;28;20202;-73
2022/10/01 02:57:21;;;;;;;3.40;3.10;;;;;;;;;;5019521;28;20249;-71
2022/10/01 02:59:06;;;;;;;4.13;3.57;;;;;;;;;;5022979;28;20866;-73
2022/10/01 03:01:31;;;;;;;3.87;3.57;;;;;;;;;;5011958;28;20178;-72
2022/10/01 03:03:56;;;;;;;4.83;4.23;;;;;;;;;;5024799;28;20703;-72
2022/10/01 03:06:22;;;;;;;3.87;3.57;;;;;;;;;;5021148;28;20245;-73
2022/10/01 03:08:47;;;;;;;3.63;3.33;;;;;;;;;;5026481;28;20182;-72
2022/10/01 03:11:14;;;;;;;4.30;3.90;;;;;;;;;;5006173;28;20179;-72
2022/10/01 03:13:40;;;;;;;5.30;4.20;;;;;;;;;;5028093;28;20198;-72
2022/10/01 03:16:05;;;;;;;5.00;4.27;;;;;;;;;;5023343;28;20637;-72
2022/10/01 03:18:30;;;;;;;5.50;4.80;;;;;;;;;;5027736;28;20189;-73
2022/10/01 03:20:55;;;;;;;5.80;5.27;;;;;;;;;;5029894;28;20182;-73
2022/10/01 03:23:21;;;;;;;5.70;5.20;;;;;;;;;;5026615;28;20210;-72
2022/10/01 03:25:46;;;;;;;5.13;4.73;;;;;;;;;;5029482;28;20546;-74
2022/10/01 03:28:12;;;;;;;6.20;5.70;;;;;;;;;;5028446;28;20196;-74
2022/10/01 03:30:37;;;;;;;6.17;5.67;;;;;;;;;;5025332;28;20186;-72
2022/10/01 03:33:03;;;;;;;5.87;5.40;;;;;;;;;;5024923;28;20600;-75
2022/10/01 03:35:28;;;;;;;7.03;5.67;;;;;;;;;;5028107;28;20190;-75
2022/10/01 03:37:53;;;;;;;6.70;6.10;;;;;;;;;;5011354;28;20557;-74
2022/10/01 03:40:18;;;;;;;6.80;6.20;;;;;;;;;;5030639;28;20228;-74
2022/10/01 03:42:44;;;;;;;6.30;5.80;;;;;;;;;;5014806;28;20221;-75
2022/10/01 03:45:09;;;;;;;6.80;6.20;;;;;;;;;;5030413;28;20228;-72
2022/10/01 03:47:34;;;;;;;6.27;5.67;;;;;;;;;;5024784;28;20181;-73
2022/10/01 03:49:59;;;;;;;6.30;5.70;;;;;;;;;;5031121;28;20179;-73
2022/10/01 03:52:24;;;;;;;5.80;5.30;;;;;;;;;;5025263;28;20203;-74
2022/10/01 03:54:50;;;;;;;6.20;5.67;;;;;;;;;;5027740;28;20633;-73
2022/10/01 03:57:15;;;;;;;6.10;5.60;;;;;;;;;;5019490;28;20219;-72
2022/10/01 03:59:41;;;;;;;5.93;5.40;;;;;;;;;;5025516;28;20242;-73
2022/10/01 04:02:07;;;;;;;5.27;4.87;;;;;;;;;;5021791;28;20194;-73
2022/10/01 04:04:32;;;;;;;6.03;5.53;;;;;;;;;;5024309;28;20266;-73
2022/10/01 04:06:57;;;;;;;6.23;5.73;;;;;;;;;;5022351;28;20262;-73
2022/10/01 04:09:22;;;;;;;5.93;5.43;;;;;;;;;;5025730;28;20607;-73
2022/10/01 04:11:48;;;;;;;6.97;6.43;;;;;;;;;;5023799;28;20190;-73
2022/10/01 04:14:13;;;;;;;7.20;5.93;;;;;;;;;;5028009;28;20213;-73
2022/10/01 04:16:38;;;;;;;6.27;5.77;;;;;;;;;;5020390;28;20202;-73
2022/10/01 04:19:03;;;;;;;6.07;5.57;;;;;;;;;;5033485;28;20640;-73
2022/10/01 04:21:28;;;;;;;6.07;5.67;;;;;;;;;;5021548;28;20174;-73
2022/10/01 04:23:54;;;;;;;6.47;5.63;;;;;;;;;;5028495;28;20206;-72
2022/10/01 04:26:19;;;;;;;5.87;5.37;;;;;;;;;;5025368;28;20288;-73
2022/10/01 04:28:45;;;;;;;5.80;5.30;;;;;;;;;;5029105;28;20648;-73
2022/10/01 04:31:26;;;;;;;5.33;4.83;;;;;;;;;;5032988;28;20182;-73
2022/10/01 04:33:55;;;;;;;5.93;5.33;;;;;;;;;;5028750;28;20202;-73
2022/10/01 04:36:20;;;;;;;6.57;5.20;;;;;;;;;;5013820;28;20210;-73
2022/10/01 04:38:46;;;;;;;5.80;5.35;;;;;;;;;;5003744;28;20185;-73
2022/10/01 04:41:13;;;;;;;6.00;5.50;;;;;;;;;;5022896;28;20554;-73
2022/10/01 04:43:39;;;;;;;6.87;6.27;;;;;;;;;;5029441;28;20297;-73
2022/10/01 04:46:04;;;;;;;5.97;5.47;;;;;;;;;;5032877;28;20707;-73
2022/10/01 04:48:29;;;;;;;6.82;6.22;;;;;;;;;;5027934;28;20548;-73
2022/10/01 04:50:54;;;;;;;6.77;5.90;;;;;;;;;;5019741;28;20184;-73
2022/10/01 04:53:20;;;;;;;6.90;6.30;;;;;;;;;;5026903;28;20248;-75
2022/10/01 04:55:45;;;;;;;6.78;6.18;;;;;;;;;;5014343;28;20242;-72
2022/10/01 04:58:10;;;;;;;7.10;6.40;;;;;;;;;;5023012;28;20241;-71
2022/10/01 05:00:35;;;;;;;7.22;6.53;;;;;;;;;;5027647;28;20182;-73
2022/10/01 05:03:01;;;;;;;7.10;6.00;;;;;;;;;;5023191;28;20692;-72
2022/10/01 05:05:27;;;;;;;7.28;6.53;;;;;;;;;;5030356;28;20232;-73
2022/10/01 05:07:53;;;;;;;7.13;6.53;;;;;;;;;;5030773;28;20193;-73
2022/10/01 05:10:19;;;;;;;6.88;6.28;;;;;;;;;;5030531;28;20558;-74
2022/10/01 05:12:45;;;;;;;7.82;7.13;;;;;;;;;;5023020;28;20691;-73
2022/10/01 05:15:10;;;;;;;6.88;6.28;;;;;;;;;;5029001;28;20178;-73
2022/10/01 05:17:35;;;;;;;7.05;6.35;;;;;;;;;;5031298;28;20694;-71
2022/10/01 05:20:02;;;;;;;9.55;7.25;;;;;;;;;;5030111;28;20189;-74
2022/10/01 05:22:27;;;;;;;8.07;6.72;;;;;;;;;;5025617;28;20585;-73
2022/10/01 05:24:52;;;;;;;7.45;6.60;;;;;;;;;;5027378;28;20189;-74
2022/10/01 05:27:18;;;;;;;8.00;6.75;;;;;;;;;;5031080;28;20209;-72
2022/10/01 05:29:43;;;;;;;8.00;6.15;;;;;;;;;;5022972;28;20186;-72
2022/10/01 05:32:11;;;;;;;8.10;6.45;;;;;;;;;;5026403;28;20293;-72
2022/10/01 05:34:36;;;;;;;7.53;6.82;;;;;;;;;;5012392;28;20201;-74
2022/10/01 05:37:02;;;;;;;7.40;6.50;;;;;;;;;;5008597;28;20206;-73
2022/10/01 05:39:31;;;;;;;7.78;6.18;;;;;;;;;;5025815;28;20179;-73
2022/10/01 05:41:56;;;;;;;6.78;5.85;;;;;;;;;;5026737;28;20185;-73
2022/10/01 05:44:22;;;;;;;6.63;5.95;;;;;;;;;;5032567;28;20186;-73
2022/10/01 05:46:48;;;;;;;7.03;5.68;;;;;;;;;;5026418;28;20228;-73
2022/10/01 05:49:14;;;;;;;7.93;6.30;;;;;;;;;;5028749;28;20546;-71
2022/10/01 05:51:40;;;;;;;6.38;5.72;;;;;;;;;;5003318;28;20701;-73
2022/10/01 05:54:05;;;;;;;7.30;6.50;;;;;;;;;;5022576;28;20214;-71
2022/10/01 05:56:31;;;;;;;7.18;5.90;;;;;;;;;;5024575;28;20202;-71
2022/10/01 05:58:56;;;;;;;9.40;6.47;;;;;;;;;;5013470;28;20229;-73
2022/10/01 06:01:21;;;;;;;7.20;6.00;;;;;;;;;;5012951;28;20183;-73
2022/10/01 06:03:50;;;;;;;6.30;5.70;;;;;;;;;;5024521;28;20683;-73
2022/10/01 06:06:19;;;;;;;6.35;5.68;;;;;;;;;;5022324;28;20633;-73
2022/10/01 06:08:45;;;;;;;5.78;5.18;;;;;;;;;;5005849;28;20182;-73
2022/10/01 06:11:10;;;;;;;6.15;5.10;;;;;;;;;;5017085;28;20183;-73
2022/10/01 06:13:36;;;;;;;6.80;6.10;;;;;;;;;;5018254;28;20261;-74
2022/10/01 06:16:01;;;;;;;5.65;4.97;;;;;;;;;;5026251;28;20296;-73
2022/10/01 06:18:26;;;;;;;8.30;5.43;;;;;;;;;;5019246;28;20264;-72
2022/10/01 06:20:51;;;;;;;8.00;5.28;;;;;;;;;;5013692;28;20435;-74
2022/10/01 06:23:16;;;;;;;6.30;5.40;;;;;;;;;;5027757;28;20210;-73
2022/10/01 06:25:42;;;;;;;9.13;5.68;;;;;;;;;;5029066;28;20549;-71
2022/10/01 06:28:08;;;;;;;5.57;4.97;;;;;;;;;;5023090;28;20182;-71
2022/10/01 06:30:35;;;;;;;8.82;5.72;;;;;;;;;;5026492;28;20237;-74
2022/10/01 06:33:11;;;;;;;6.93;5.57;;;;;;;;;;5029200;28;20256;-74
2022/10/01 06:35:40;;;;;;;5.95;4.78;;;;;;;;;;5023561;28;20186;-73
2022/10/01 06:38:06;;;;;;;8.25;5.88;;;;;;;;;;5026803;28;20724;-71
2022/10/01 06:40:32;;;;;;;6.15;5.10;;;;;;;;;;5024007;28;20257;-74
2022/10/01 06:42:57;;;;;;;6.68;5.10;;;;;;;;;;5029416;28;20320;-73
2022/10/01 06:45:26;;;;;;;8.40;4.90;;;;;;;;;;5012694;28;20209;-73
2022/10/01 06:47:52;;;;;;;7.97;5.20;;;;;;;;;;5023468;28;20181;-71
2022/10/01 06:50:17;;;;;;;8.15;5.10;;;;;;;;;;5027315;28;20261;-74
2022/10/01 06:52:48;;;;;;;9.07;5.47;;;;;;;;;;5021725;28;20201;-72
2022/10/01 06:55:14;;;;;;;7.78;5.45;;;;;;;;;;5025375;28;20603;-73
2022/10/01 06:57:39;;;;;;;6.35;4.63;;;;;;;;;;5021610;28;20215;-73
2022/10/01 07:00:05;;;;;;;7.07;4.28;;;;;;;;;;5025264;28;20561;-73
2022/10/01 07:02:31;;;;;;;6.57;4.53;;;;;;;;;;5016782;28;20253;-73
2022/10/01 07:04:57;;;;;;;5.72;3.63;;;;;;;;;;5009819;28;20174;-73
2022/10/01 07:07:23;;;;;;;4.07;3.42;;;;;;;;;;5024643;28;20185;-73
2022/10/01 07:09:48;;;;;;;3.90;2.75;;;;;;;;;;5021783;28;20710;-72
2022/10/01 07:12:13;;;;;;;7.03;4.13;;;;;;;;;;5013130;28;20759;-72
2022/10/01 07:14:38;;;;;;;4.15;2.70;;;;;;;;;;5019475;28;20190;-73
2022/10/01 07:17:04;;;;;;;5.55;2.38;;;;;;;;;;5020242;28;20225;-73
2022/10/01 07:19:30;;;;;;;5.85;2.40;;;;;;;;;;5012768;28;20206;-74
2022/10/01 07:21:55;;;;;;;9.80;2.28;;;;;;;;;;5024119;28;20228;-74
2022/10/01 07:24:20;;;;;;;3.50;2.08;;;;;;;;;;5026721;28;20279;-74
2022/10/01 07:26:49;;;;;;;2.63;1.77;;;;;;;;;;5019744;28;20216;-73
2022/10/01 07:29:15;;;;;;;4.75;1.55;;;;;;;;;;5019655;28;20213;-73
2022/10/01 07:31:40;;;;;;;4.32;1.80;;;;;;;;;;5010283;28;20174;-73
2022/10/01 07:34:05;;;;;;;5.38;1.58;;;;;;;;;;5008049;28;20194;-73
2022/10/01 07:36:30;;;;;;;6.53;1.48;;;;;;;;;;5028971;28;20687;-74
2022/10/01 07:38:55;;;;;;;3.78;1.92;;;;;;;;;;5023280;28;20178;-71
2022/10/01 07:41:21;;;;;;;4.95;1.88;;;;;;;;;;5021715;28;20268;-73
2022/10/01 07:43:47;;;;;;;3.83;1.80;;;;;;;;;;5026877;28;20186;-71
2022/10/01 07:46:12;;;;;;;3.97;2.33;;;;;;;;;;5019703;28;20187;-74
2022/10/01 07:48:37;;;;;;;7.75;3.20;;;;;;;;;;5027654;28;20252;-73
2022/10/01 07:51:03;;;;;;;4.45;3.85;;;;;;;;;;5027241;28;20183;-72
2022/10/01 07:53:28;;;;;;;4.10;3.53;;;;;;;;;;5010875;28;20773;-71
2022/10/01 07:55:53;;;;;;;6.10;3.35;;;;;;;;;;5013690;28;20226;-71
2022/10/01 07:58:22;;;;;;;3.20;2.90;;;;;;;;;;5012398;28;20178;-73
2022/10/01 08:00:47;;;;;;;3.88;2.67;;;;;;;;;;5022469;28;20178;-74
2022/10/01 08:03:13;;;;;;;6.03;2.20;;;;;;;;;;5023822;28;20210;-71
2022/10/01 08:05:39;;;;;;;7.82;2.40;;;;;;;;;;5029492;28;20177;-71
2022/10/01 08:08:06;;;;;;;5.15;2.13;;;;;;;;;;5009594;28;20706;-71
2022/10/01 08:10:35;;;;;;;5.10;2.55;;;;;;;;;;5021013;28;20266;-71
2022/10/01 08:13:13;;;;;;;8.70;2.55;;;;;;;;;;5023179;28;20283;-71
2022/10/01 08:15:38;;;;;;;5.30;2.55;;;;;;;;;;5029221;28;20182;-71
2022/10/01 08:18:03;;;;;;;3.58;2.42;;;;;;;;;;5026248;28;20229;-71
2022/10/01 08:20:29;;;;;;;5.38;3.30;;;;;;;;;;5020930;28;20185;-74
2022/10/01 08:23:00;;;;;;;3.97;2.70;;;;;;;;;;5018753;28;20206;-73
2022/10/01 08:25:25;;;;;;;7.82;3.70;;;;;;;;;;5018065;28;20202;-75
2022/10/01 08:27:50;;;;;;;7.38;3.50;;;;;;;;;;5015851;28;20585;-76
2022/10/01 08:30:15;;;;;;;9.10;2.90;;;;;;;;;;5029040;28;20261;-74
2022/10/01 08:32:40;;;;;;;8.93;2.50;;;;;;;;;;5026801;28;20190;-74
2022/10/01 08:35:06;;;;;;;6.07;3.13;;;;;;;;;;5026232;28;20257;-75
2022/10/01 08:37:31;;;;;;;4.95;3.22;;;;;;;;;;5027085;28;20186;-75
2022/10/01 08:39:56;;;;;;;9.02;4.20;;;;;;;;;;5023299;28;20204;-75
2022/10/01 08:42:24;;;;;;;8.20;2.83;;;;;;;;;;5022885;28;20198;-74
2022/10/01 08:44:50;;;;;;;7.78;1.90;;;;;;;;;;5023167;28;20175;-75
2022/10/01 08:47:17;;;;;;;8.80;1.77;;;;;;;;;;5019786;28;20184;-73
2022/10/01 08:49:47;;;;;;;9.23;2.58;;;;;;;;;;5019518;28;20258;-74
2022/10/01 08:52:20;;;;;;;8.52;1.95;;;;;;;;;;5018106;28;20276;-73
2022/10/01 08:54:49;;;;;;;5.75;1.85;;;;;;;;;;5014822;28;20740;-73
2022/10/01 08:57:16;;;;;;;5.18;2.55;;;;;;;;;;5027799;28;20213;-73
2022/10/01 08:59:43;;;;;;;6.07;1.92;;;;;;;;;;5021169;28;20177;-73
2022/10/01 09:02:20;;;;;;;6.30;2.58;;;;;;;;;;5019552;28;20211;-73
2022/10/01 09:04:46;;;;;;;6.65;2.85;;;;;;;;;;5020283;28;20185;-73
2022/10/01 09:07:20;;;;;;;6.78;2.42;;;;;;;;;;5006783;28;20209;-73
2022/10/01 09:10:04;;;;;;;6.68;1.58;;;;;;;;;;5018861;28;20191;-73
2022/10/01 09:12:29;;;;;;;6.97;1.45;;;;;;;;;;5017179;28;20203;-73
2022/10/01 09:15:04;;;;;;;9.13;2.07;;;;;;;;;;5030497;28;20189;-73
2022/10/01 09:17:38;;;;;;;7.32;1.10;;;;;;;;;;5027091;28;20458;-73
2022/10/01 09:20:10;;;;;;;9.65;1.63;;;;;;;;;;5027330;28;20182;-73
2022/10/01 09:22:41;;;;;;;8.15;1.67;;;;;;;;;;5027317;28;20231;-71
2022/10/01 09:25:18;;;;;;;7.32;1.80;;;;;;;;;;5029011;28;20178;-70
2022/10/01 09:27:43;;;;;;;7.88;1.48;;;;;;;;;;5026792;28;20178;-72
2022/10/01 09:30:23;;;;;;;4.53;1.35;;;;;;;;;;5012414;28;20232;-71
2022/10/01 09:32:57;;;;;;;11.15;1.52;;;;;;;;;;5019989;28;20194;-71
2022/10/01 09:35:22;;;;;;;9.88;1.73;;;;;;;;;;5013090;28;20179;-72
2022/10/01 09:37:50;;;;;;;13.05;1.83;;;;;;;;;;5025926;28;20543;-71
2022/10/01 09:40:33;;;;;;;9.15;2.00;;;;;;;;;;5020944;28;20178;-71
2022/10/01 09:42:59;;;;;;;11.13;2.45;;;;;;;;;;5019115;28;20198;-71
2022/10/01 09:45:24;;;;;;;5.28;1.42;;;;;;;;;;5026114;28;20195;-70
2022/10/01 09:47:52;;;;;;;5.72;1.30;;;;;;;;;;5028473;28;20214;-71
2022/10/01 09:50:20;;;;;;;4.53;1.52;;;;;;;;;;5013990;28;20277;-70
2022/10/01 09:52:49;;;;;;;6.63;1.55;;;;;;;;;;5023848;28;20238;-71
2022/10/01 09:55:17;;;;;;;5.57;1.35;;;;;;;;;;5015599;28;20189;-71
2022/10/01 09:57:49;;;;;;;6.28;1.73;;;;;;;;;;5022771;28;20198;-71
2022/10/01 10:00:18;;;;;;;5.72;1.42;;;;;;;;;;5028894;28;20183;-72
2022/10/01 10:02:45;;;;;;;6.38;1.30;;;;;;;;;;5027512;28;20781;-70
2022/10/01 10:05:14;;;;;;;3.15;1.33;;;;;;;;;;5023589;28;20229;-70
2022/10/01 10:07:43;;;;;;;7.85;2.08;;;;;;;;;;5024021;28;20198;-71
2022/10/01 10:10:11;;;;;;;6.85;1.48;;;;;;;;;;5023949;28;20187;-70
2022/10/01 10:12:36;;;;;;;11.00;1.60;;;;;;;;;;5029239;28;20768;-71
2022/10/01 10:15:08;;;;;;;3.95;1.20;;;;;;;;;;5025957;28;20183;-71
2022/10/01 10:17:36;;;;;;;6.07;1.30;;;;;;;;;;5025931;28;20903;-70
2022/10/01 10:20:09;;;;;;;3.72;1.23;;;;;;;;;;5014054;28;20170;-70
2022/10/01 10:22:34;;;;;;;10.75;2.53;;;;;;;;;;5024656;28;20194;-70
2022/10/01 10:25:09;;;;;;;7.47;2.58;;;;;;;;;;5024425;28;20190;-70
2022/10/01 10:27:35;;;;;;;4.75;1.63;;;;;;;;;;5028228;28;20208;-70
2022/10/01 10:30:04;;;;;;;7.65;1.30;;;;;;;;;;5013019;28;20214;-71
2022/10/01 10:32:30;;;;;;;6.35;1.55;;;;;;;;;;5030417;28;20206;-71
2022/10/01 10:34:57;;;;;;;5.75;1.52;;;;;;;;;;5025859;28;20174;-70
2022/10/01 10:37:26;;;;;;;7.05;1.80;;;;;;;;;;5020908;28;20289;-70
2022/10/01 10:39:52;;;;;;;5.72;1.20;;;;;;;;;;5019842;28;20170;-70
2022/10/01 10:42:18;;;;;;;6.15;1.00;;;;;;;;;;5017477;28;20198;-70
2022/10/01 10:44:45;;;;;;;3.78;1.08;;;;;;;;;;5010512;28;20179;-71
2022/10/01 10:47:12;;;;;;;5.70;1.15;;;;;;;;;;5004700;28;20559;-70
2022/10/01 10:49:44;;;;;;;4.85;1.23;;;;;;;;;;5018970;28;20183;-70
2022/10/01 10:52:22;;;;;;;4.95;1.73;;;;;;;;;;5025605;28;20213;-70
2022/10/01 10:54:48;;;;;;;5.90;1.30;;;;;;;;;;5020678;28;20181;-70
2022/10/01 10:57:14;;;;;;;4.40;1.40;;;;;;;;;;5016298;28;20341;-70
2022/10/01 10:59:39;;;;;;;5.88;1.10;;;;;;;;;;5012291;28;20604;-69
2022/10/01 11:02:06;;;;;;;2.83;0.93;;;;;;;;;;5019017;28;20193;-70
2022/10/01 11:04:37;;;;;;;7.05;1.38;;;;;;;;;;5022886;28;20217;-70
2022/10/01 11:07:02;;;;;;;4.38;1.45;;;;;;;;;;5025612;28;20189;-70
2022/10/01 11:09:32;;;;;;;6.65;1.27;;;;;;;;;;5026576;28;20182;-70
2022/10/01 11:12:20;;;;;;;6.72;1.90;;;;;;;;;;5026272;28;20186;-70
2022/10/01 11:14:58;;;;;;;5.55;1.88;;;;;;;;;;5020743;28;20182;-70
2022/10/01 11:17:34;;;;;;;5.07;1.08;;;;;;;;;;5018031;28;20210;-70
2022/10/01 11:20:10;;;;;;;4.90;1.42;;;;;;;;;;5021774;28;20253;-70
2022/10/01 11:22:35;;;;;;;5.25;1.60;;;;;;;;;;5015119;28;20337;-70
2022/10/01 11:25:18;;;;;;;5.80;1.47;;;;;;;;;;5028407;28;20261;-70
2022/10/01 11:27:43;;;;;;;6.88;2.03;;;;;;;;;;5028055;28;20480;-70
2022/10/01 11:30:12;;;;;;;7.05;1.65;;;;;;;;;;5009666;28;20231;-70
2022/10/01 11:33:01;;;;;;;10.23;3.05;;;;;;;;;;5024569;28;20726;-70
2022/10/01 11:35:43;;;;;;;11.15;3.03;;;;;;;;;;5024964;28;20866;-70
2022/10/01 11:38:23;;;;;;;5.00;1.52;;;;;;;;;;5028301;28;20644;-70
2022/10/01 11:40:52;;;;;;;7.60;2.20;;;;;;;;;;5016126;28;20182;-70
2022/10/01 11:43:23;;;;;;;4.70;1.42;;;;;;;;;;5028667;28;20198;-70
2022/10/01 11:45:51;;;;;;;5.13;1.27;;;;;;;;;;5022656;28;20175;-70
2022/10/01 11:48:22;;;;;;;5.63;2.25;;;;;;;;;;5015384;28;20178;-70
2022/10/01 11:50:50;;;;;;;7.47;1.83;;;;;;;;;;5021473;28;20202;-70
2022/10/01 11:53:29;;;;;;;9.60;2.28;;;;;;;;;;5025308;28;20598;-70
2022/10/01 11:59:01;;;;;;;5.13;1.10;;;;;;;;;;5020623;28;20268;-70
2022/10/01 12:01:28;;;;;;;8.38;1.40;;;;;;;;;;5019398;28;20185;-70
2022/10/01 12:04:00;;;;;;;18.75;2.80;;;;;;;;;;5031117;28;20619;-70
2022/10/01 12:06:32;;;;;;;4.30;1.15;;;;;;;;;;5031305;28;20170;-70
2022/10/01 12:09:01;;;;;;;5.68;1.30;;;;;;;;;;5028082;28;20223;-70
2022/10/01 12:11:34;;;;;;;5.15;1.55;;;;;;;;;;5030629;28;20189;-70
2022/10/01 12:14:09;;;;;;;6.35;1.02;;;;;;;;;;5022826;28;20198;-70
2022/10/01 12:16:58;;;;;;;6.65;2.13;;;;;;;;;;5030403;28;20567;-70
2022/10/01 12:19:32;;;;;;;6.25;1.20;;;;;;;;;;5013348;28;20217;-69
2022/10/01 12:22:05;;;;;;;5.43;1.13;;;;;;;;;;5023164;28;20174;-70
2022/10/01 12:24:35;;;;;;;7.75;1.10;;;;;;;;;;5031977;28;20614;-70
2022/10/01 12:27:03;;;;;;;5.70;1.63;;;;;;;;;;5028524;28;20250;-70
2022/10/01 12:29:39;;;;;;;6.50;1.30;;;;;;;;;;5031355;28;20871;-69
2022/10/01 12:32:12;;;;;;;7.63;1.60;;;;;;;;;;5020274;28;20210;-75
2022/10/01 12:34:45;;;;;;;7.22;1.38;;;;;;;;;;5032956;28;20179;-69
2022/10/01 12:37:20;;;;;;;6.65;1.48;;;;;;;;;;5031630;28;20213;-69
2022/10/01 12:39:48;;;;;;;6.07;1.33;;;;;;;;;;5023838;28;20660;-69
2022/10/01 12:42:23;;;;;;;9.15;1.88;;;;;;;;;;5023257;28;20725;-71
2022/10/01 12:45:00;;;;;;;6.22;1.60;;;;;;;;;;5019856;28;20177;-69
2022/10/01 12:47:34;;;;;;;7.97;2.13;;;;;;;;;;5031187;28;20201;-69
2022/10/01 12:50:22;;;;;;;8.73;1.75;;;;;;;;;;5013881;28;20174;-70
2022/10/01 12:52:54;;;;;;;5.43;1.70;;;;;;;;;;5013575;28;20207;-69
2022/10/01 12:55:28;;;;;;;5.50;1.38;;;;;;;;;;5029946;28;20666;-68
2022/10/01 12:57:56;;;;;;;9.07;1.77;;;;;;;;;;5027045;28;20623;-68
2022/10/01 13:00:26;;;;;;;5.47;1.52;;;;;;;;;;5006718;28;20190;-68
2022/10/01 13:03:10;;;;;;;7.10;1.40;;;;;;;;;;5023491;28;20240;-68
2022/10/01 13:05:56;;;;;;;10.93;1.73;;;;;;;;;;5012110;28;20284;-67
2022/10/01 13:08:46;;;;;;;3.85;1.17;;;;;;;;;;5032148;28;20174;-68
2022/10/01 13:11:19;;;;;;;7.47;1.58;;;;;;;;;;5025588;28;20233;-67
2022/10/01 13:13:48;;;;;;;6.28;1.45;;;;;;;;;;5030976;28;20186;-67
2022/10/01 13:16:13;;;;;;;7.13;1.48;;;;;;;;;;5028364;28;20897;-69
2022/10/01 13:18:44;;;;;;;4.60;1.17;;;;;;;;;;5028508;28;20186;-68
2022/10/01 13:21:18;;;;;;;5.82;1.10;;;;;;;;;;5024274;28;20420;-68
2022/10/01 13:23:49;;;;;;;3.70;1.10;;;;;;;;;;5020205;28;20221;-68
2022/10/01 13:26:27;;;;;;;6.05;1.50;;;;;;;;;;5014305;28;20224;-68
2022/10/01 13:29:13;;;;;;;5.18;1.60;;;;;;;;;;5018971;28;20177;-69
2022/10/01 13:31:50;;;;;;;5.05;1.15;;;;;;;;;;5023372;28;20186;-69
2022/10/01 13:34:28;;;;;;;8.30;1.30;;;;;;;;;;5022638;28;20279;-69
2022/10/01 13:36:53;;;;;;;5.90;1.65;;;;;;;;;;5023772;28;20658;-68
2022/10/01 13:39:22;;;;;;;7.57;2.25;;;;;;;;;;5017992;28;20292;-68
2022/10/01 13:41:49;;;;;;;6.18;1.48;;;;;;;;;;5018581;28;20174;-69
2022/10/01 13:44:22;;;;;;;5.75;1.30;;;;;;;;;;5006984;28;20189;-70
2022/10/01 13:46:52;;;;;;;6.00;1.67;;;;;;;;;;5022664;28;20237;-69
2022/10/01 13:49:21;;;;;;;4.35;1.20;;;;;;;;;;5018276;28;20277;-68
2022/10/01 13:51:46;;;;;;;6.70;1.73;;;;;;;;;;5022164;28;21174;-69
2022/10/01 13:54:19;;;;;;;6.50;1.55;;;;;;;;;;5026738;28;20191;-70
2022/10/01 13:56:44;;;;;;;6.18;1.45;;;;;;;;;;5021444;28;20233;-70
2022/10/01 13:59:28;;;;;;;6.97;1.30;;;;;;;;;;5017955;28;20252;-70
2022/10/01 14:01:53;;;;;;;6.57;1.70;;;;;;;;;;5021528;28;20174;-69
2022/10/01 14:04:22;;;;;;;9.25;2.00;;;;;;;;;;5016550;28;20182;-72
2022/10/01 14:06:52;;;;;;;7.13;1.52;;;;;;;;;;5023906;28;20240;-69
2022/10/01 14:09:32;;;;;;;9.77;2.65;;;;;;;;;;5030251;28;20174;-69
2022/10/01 14:17:40;;;;;;;9.95;2.75;;;;;;;;;;5020361;28;20770;-70
2022/10/01 14:20:06;;;;;;;6.63;1.95;;;;;;;;;;5021913;28;20206;-71
2022/10/01 14:22:31;;;;;;;6.00;1.88;;;;;;;;;;5018787;28;20729;-69
2022/10/01 14:25:14;;;;;;;5.57;2.10;;;;;;;;;;5013565;28;20179;-70
2022/10/01 14:27:45;;;;;;;7.05;2.22;;;;;;;;;;5030258;28;20423;-70
2022/10/01 14:30:15;;;;;;;6.00;1.98;;;;;;;;;;5022048;28;20182;-70
2022/10/01 14:32:49;;;;;;;3.15;1.40;;;;;;;;;;5023738;28;20243;-71
2022/10/01 14:35:23;;;;;;;10.38;2.13;;;;;;;;;;5025529;28;20177;-69
2022/10/01 14:37:50;;;;;;;6.05;1.90;;;;;;;;;;5019640;28;20196;-69
2022/10/01 14:40:20;;;;;;;4.75;1.83;;;;;;;;;;5015562;28;20179;-69
2022/10/01 14:43:13;;;;;;;7.60;1.52;;;;;;;;;;5020914;28;20187;-70
2022/10/01 14:45:47;;;;;;;5.95;1.60;;;;;;;;;;5026493;28;20208;-70
2022/10/01 14:48:13;;;;;;;6.72;2.22;;;;;;;;;;5015322;28;20182;-70
2022/10/01 14:50:38;;;;;;;5.63;1.33;;;;;;;;;;5022197;28;20237;-70
2022/10/01 14:53:04;;;;;;;15.98;7.80;;;;;;;;;;5028934;28;20194;-70
2022/10/01 14:55:29;;;;;;;9.27;4.68;;;;;;;;;;5023391;28;20186;-70
2022/10/01 14:57:56;;;;;;;11.30;2.85;;;;;;;;;;5023514;28;20284;-69
2022/10/01 15:00:22;;;;;;;9.98;1.55;;;;;;;;;;5024034;28;20193;-69